Time;durP1;ratioP1;P1;durP2;ratioP2;P2;SDS_P1;SDS_P2;PMS_P1;PMS_P2;Temp;Humidity;BMP_temperature;BMP_pressure;BME280_temperature;BME280_humidity;BME280_pressure;Samples;Min_cycle;Max_cycle;Signal;HPM_P1;HPM_P2
2023/12/10 09:34:41;;;;;;;8.87;1.97;;;10.80;92.30;;;11.13;52.58;98456.19;6250797;22;98371;-84
2023/12/10 10:12:43;;;;;;;7.10;2.20;;;11.10;92.50;;;11.16;53.80;98474.06;6244365;22;110435;-85
2023/12/10 10:27:25;;;;;;;10.23;2.40;;;10.90;92.90;;;11.03;54.66;98470.31;5920996;23;111285;-86
2023/12/10 10:30:32;;;;;;;6.40;1.90;;;11.00;93.00;;;11.02;55.02;98477.00;5894994;23;109906;-87
2023/12/10 10:34:03;;;;;;;9.33;2.00;;;11.30;93.30;;;10.98;55.36;98487.06;5916511;23;125169;-84
2023/12/10 10:36:34;;;;;;;6.37;2.27;;;10.00;92.80;;;10.96;55.60;98464.44;5914674;23;123832;-85
2023/12/10 10:40:11;;;;;;;7.13;2.23;;;10.70;93.30;;;10.94;56.06;98475.03;5913629;23;108455;-87
2023/12/10 10:44:16;;;;;;;10.43;1.93;;;10.80;93.60;;;10.95;56.08;98471.91;5914261;23;109293;-87
2023/12/10 10:47:48;;;;;;;7.17;2.43;;;12.20;94.20;;;10.95;55.66;98463.63;5892046;23;124885;-86
2023/12/10 10:50:30;;;;;;;7.10;2.40;;;10.70;93.60;;;10.99;55.52;98483.16;5866613;24;122058;-86
2023/12/10 10:56:50;;;;;;;9.03;2.40;;;10.30;93.30;;;11.03;55.21;98457.28;6117487;23;109499;-85
2023/12/10 10:59:36;;;;;;;8.03;2.50;;;10.70;93.80;;;11.04;55.53;98447.88;6096311;23;123628;-85
2023/12/10 11:02:22;;;;;;;10.90;3.20;;;8.50;93.60;;;11.06;55.52;98455.84;6072390;23;121951;-85
2023/12/10 11:04:54;;;;;;;10.37;2.50;;;10.70;93.40;;;11.04;55.43;98435.97;6096247;23;108703;-86
2023/12/10 11:07:25;;;;;;;5.77;2.00;;;10.80;93.60;;;11.04;54.93;98436.81;6073957;23;109933;-86
2023/12/10 11:10:07;;;;;;;7.50;2.77;;;10.90;93.60;;;11.07;54.90;98429.84;6026826;22;122760;-86
2023/12/10 11:13:04;;;;;;;9.77;2.30;;;10.90;93.40;;;11.09;54.94;98430.31;6073301;22;123878;-83
2023/12/10 11:15:57;;;;;;;6.50;2.07;;;10.90;93.20;;;11.12;54.98;98435.19;6121166;22;109751;-86
2023/12/10 11:19:01;;;;;;;8.63;2.90;;;10.80;93.20;;;11.10;54.97;98444.97;6116319;22;107909;-85
2023/12/10 11:21:36;;;;;;;9.27;2.57;;;8.90;92.80;;;11.15;55.07;98442.00;6204797;22;124690;-86
2023/12/10 11:28:28;;;;;;;8.43;1.70;;;10.90;93.20;;;11.16;54.86;98438.13;6147280;23;110328;-87
2023/12/10 11:31:38;;;;;;;11.50;2.80;;;10.90;93.20;;;11.19;54.72;98454.06;6124685;22;109914;-86
2023/12/10 11:34:22;;;;;;;5.17;1.80;;;11.10;93.20;;;11.20;54.79;98441.84;6149625;23;124231;-86
2023/12/10 11:36:54;;;;;;;5.30;2.07;;;8.60;92.60;;;11.23;54.67;98441.19;6150239;22;123568;-86
2023/12/10 11:40:03;;;;;;;10.63;2.70;;;12.80;94.10;;;11.21;54.54;98452.59;6137292;23;109441;-87
2023/12/10 11:42:45;;;;;;;7.00;1.87;;;10.80;93.40;;;11.17;55.29;98457.13;6090722;23;107857;-85
2023/12/10 11:45:38;;;;;;;9.50;2.13;;;13.40;94.30;;;11.18;55.40;98435.84;6034135;23;122302;-86
2023/12/10 11:48:46;;;;;;;7.60;2.30;;;11.10;93.90;;;11.18;55.58;98433.91;6050004;23;123540;-86
2023/12/10 11:51:18;;;;;;;9.07;2.80;;;10.90;93.50;;;11.21;55.52;98435.19;6086085;23;109122;-87
2023/12/10 11:54:14;;;;;;;8.97;2.10;;;10.90;93.70;;;11.21;55.56;98421.38;6019726;23;108702;-86
2023/12/10 11:57:21;;;;;;;12.73;2.90;;;11.00;94.00;;;11.25;55.88;98431.44;6066086;23;123678;-85
2023/12/10 12:00:07;;;;;;;6.90;2.53;;;8.50;93.20;;;11.31;55.82;98432.09;6007547;23;123485;-86
2023/12/10 12:03:09;;;;;;;10.10;3.10;;;10.90;93.80;;;11.32;55.95;98436.50;5973600;23;109064;-85
2023/12/10 12:06:07;;;;;;;12.73;2.50;;;8.50;93.30;;;11.30;55.97;98438.75;6034024;23;109874;-85
2023/12/10 12:09:37;;;;;;;12.77;3.13;;;11.10;93.90;;;11.29;55.53;98439.91;5979095;23;124129;-87
2023/12/10 12:12:30;;;;;;;10.90;3.07;;;11.00;93.80;;;11.32;55.45;98442.03;6009422;23;124509;-86
2023/12/10 12:15:15;;;;;;;6.00;2.20;;;11.00;93.70;;;11.32;55.33;98446.75;5992750;23;109334;-85
2023/12/10 12:18:28;;;;;;;8.20;2.60;;;9.70;93.80;;;11.32;55.65;98435.69;6038697;23;109710;-86
2023/12/10 12:22:03;;;;;;;12.93;3.00;;;11.00;93.70;;;11.36;55.37;98442.16;6053023;23;125084;-86
2023/12/10 12:25:18;;;;;;;10.33;3.13;;;11.10;93.80;;;11.39;55.75;98431.28;6060044;23;123628;-87
2023/12/10 12:27:58;;;;;;;9.53;2.40;;;11.10;93.70;;;11.42;55.55;98424.28;6037578;23;108270;-85
2023/12/10 12:30:55;;;;;;;10.33;3.23;;;11.10;93.80;;;11.45;54.95;98405.06;6091057;23;110749;-85
2023/12/10 12:33:24;;;;;;;8.23;2.47;;;11.10;93.50;;;11.47;55.19;98415.78;6058431;23;124133;-87
2023/12/10 12:36:45;;;;;;;12.00;2.37;;;11.20;93.50;;;11.48;55.08;98412.72;6065815;23;123207;-88
2023/12/10 12:40:04;;;;;;;5.97;2.37;;;11.20;93.40;;;11.48;54.83;98421.00;6041362;23;108564;-87
2023/12/10 12:42:37;;;;;;;16.10;4.67;;;13.10;94.10;;;11.48;54.65;98423.78;6083574;23;107574;-86
2023/12/10 12:45:51;;;;;;;7.50;2.20;;;11.20;93.10;;;11.49;54.67;98413.53;6088074;23;124767;-88
2023/12/10 12:48:37;;;;;;;10.37;3.17;;;11.20;93.00;;;11.49;54.13;98406.03;6031170;23;124542;-87
2023/12/10 12:51:30;;;;;;;6.83;2.43;;;11.20;93.10;;;11.52;54.36;98417.59;6034953;23;108322;-88
2023/12/10 12:54:36;;;;;;;9.07;2.10;;;10.20;92.50;;;11.53;54.28;98413.69;5974862;23;109079;-87
2023/12/10 12:57:23;;;;;;;11.83;2.93;;;11.30;92.90;;;11.54;53.72;98410.59;6034843;23;123633;-87
2023/12/10 13:00:17;;;;;;;8.70;2.57;;;11.20;92.90;;;11.55;53.69;98416.94;6035081;23;122126;-88
2023/12/10 13:04:03;;;;;;;8.97;2.77;;;11.20;92.70;;;11.55;54.04;98405.84;6011633;23;109947;-87
2023/12/10 13:07:26;;;;;;;10.47;2.80;;;11.30;92.70;;;11.56;53.84;98401.97;5988140;23;108933;-88
2023/12/10 13:10:20;;;;;;;8.17;2.17;;;10.10;92.10;;;11.57;54.14;98403.59;6016678;23;123746;-88
2023/12/10 13:13:16;;;;;;;7.70;2.40;;;11.30;92.70;;;11.58;53.93;98386.66;6033070;23;95772;-87
2023/12/10 13:16:02;;;;;;;12.17;2.87;;;11.30;92.70;;;11.60;53.61;98380.78;5982455;23;109113;-87
2023/12/10 13:18:50;;;;;;;6.70;3.10;;;11.30;92.80;;;11.62;53.18;98400.66;6117799;23;109208;-86
2023/12/10 13:24:19;;;;;;;4.47;2.03;;;11.40;92.50;;;11.61;53.22;98385.19;6259905;22;126561;-88
2023/12/10 13:26:53;;;;;;;7.90;2.30;;;8.60;91.80;;;11.62;53.14;98395.91;6265474;22;110231;-87
2023/12/10 13:29:22;;;;;;;8.30;2.10;;;11.30;92.40;;;11.63;53.23;98411.41;6242429;22;109624;-86
2023/12/10 13:31:57;;;;;;;6.23;1.80;;;11.40;92.40;;;11.63;53.10;98396.72;6191331;22;124114;-86
2023/12/10 13:34:24;;;;;;;7.53;2.17;;;11.40;92.70;;;11.65;53.04;98399.97;6260572;22;124071;-87
2023/12/10 13:37:01;;;;;;;6.63;2.40;;;11.30;92.50;;;11.68;53.21;98404.84;6190216;22;108586;-86
2023/12/10 13:40:05;;;;;;;9.10;2.17;;;11.30;92.40;;;11.67;53.01;98392.16;6203076;22;108229;-86
2023/12/10 13:42:44;;;;;;;5.87;2.47;;;11.40;92.40;;;11.68;53.18;98394.59;6260368;22;123981;-85
2023/12/10 13:45:15;;;;;;;9.50;2.57;;;11.40;92.50;;;11.71;53.09;98404.19;6269324;22;123673;-86
2023/12/10 13:47:50;;;;;;;7.87;2.60;;;11.40;92.60;;;11.69;52.81;98385.16;6230814;22;108287;-86
2023/12/10 13:50:21;;;;;;;8.23;2.40;;;11.40;92.20;;;11.71;52.88;98393.13;6180828;22;107683;-85
2023/12/10 13:52:59;;;;;;;6.57;2.30;;;8.90;91.60;;;11.70;52.75;98377.66;6184062;22;123892;-85
2023/12/10 13:55:30;;;;;;;7.50;2.20;;;11.00;92.00;;;11.69;52.99;98384.34;6215954;22;123832;-85
2023/12/10 13:58:30;;;;;;;6.57;2.10;;;11.40;92.30;;;11.70;53.08;98383.19;6236213;22;107099;-84
2023/12/10 14:01:08;;;;;;;7.73;1.77;;;11.50;92.20;;;11.69;53.01;98381.59;6170894;22;108498;-85
2023/12/10 14:03:52;;;;;;;12.77;2.90;;;11.40;92.20;;;11.71;53.17;98387.59;6146755;22;122383;-86
2023/12/10 14:06:48;;;;;;;8.40;2.40;;;13.80;93.60;;;11.71;53.02;98382.06;6159800;22;123283;-87
2023/12/10 14:09:27;;;;;;;8.00;1.90;;;11.40;92.20;;;11.67;52.94;98376.38;6137664;23;113018;-86
2023/12/10 14:11:56;;;;;;;8.93;2.17;;;8.80;91.50;;;11.68;53.27;98378.00;6135939;23;113188;-87
2023/12/10 14:14:39;;;;;;;9.27;2.50;;;11.40;92.20;;;11.72;53.12;98364.31;6113362;23;124323;-87
2023/12/10 14:17:08;;;;;;;7.80;2.57;;;9.70;91.80;;;11.77;53.09;98375.22;6112550;23;122470;-86
2023/12/10 14:19:46;;;;;;;10.00;2.67;;;11.50;92.20;;;11.77;52.68;98389.06;6109448;23;114026;-88
2023/12/10 14:22:18;;;;;;;9.33;2.20;;;11.50;92.20;;;11.80;52.77;98385.63;6107754;23;115755;-87
2023/12/10 14:24:45;;;;;;;5.03;1.97;;;11.50;92.20;;;11.81;52.77;98381.69;6107901;23;122040;-86
2023/12/10 14:27:16;;;;;;;8.07;2.30;;;11.50;92.30;;;11.88;52.79;98387.56;6112240;23;123300;-85
2023/12/10 14:29:50;;;;;;;6.77;2.00;;;10.70;91.80;;;11.88;52.57;98384.81;6024716;23;113331;-87
2023/12/10 14:32:28;;;;;;;4.70;2.13;;;11.60;92.30;;;11.93;52.79;98381.06;6052287;23;112579;-86
2023/12/10 14:35:02;;;;;;;10.60;2.10;;;11.60;92.20;;;11.94;52.43;98380.69;6054966;23;122382;-87
2023/12/10 14:37:58;;;;;;;7.50;2.10;;;11.70;92.20;;;11.97;52.18;98375.66;6097098;23;125196;-86
2023/12/10 14:40:45;;;;;;;7.37;2.17;;;11.70;92.00;;;11.99;52.56;98365.88;6085362;23;114220;-87
2023/12/10 14:43:20;;;;;;;4.80;1.80;;;11.70;92.10;;;12.04;52.52;98362.94;6036337;23;112522;-85
2023/12/10 14:46:12;;;;;;;4.80;1.73;;;11.70;92.10;;;12.07;52.60;98361.44;6034330;23;123253;-86
2023/12/10 14:49:03;;;;;;;9.33;2.40;;;11.80;92.10;;;12.10;52.48;98367.13;6110509;22;123410;-85
2023/12/10 14:51:43;;;;;;;9.30;2.13;;;10.60;91.60;;;12.11;52.44;98368.72;6038764;23;114221;-86
2023/12/10 14:54:16;;;;;;;5.03;2.03;;;11.80;92.00;;;12.11;52.46;98356.84;6134973;23;112270;-87
2023/12/10 14:56:50;;;;;;;8.07;2.53;;;11.80;92.00;;;12.12;52.25;98352.94;6097952;22;123166;-86
2023/12/10 14:59:19;;;;;;;5.63;1.83;;;11.80;92.20;;;12.13;52.27;98343.50;6195922;22;123752;-87
2023/12/10 15:01:48;;;;;;;4.63;2.50;;;11.90;92.10;;;12.18;52.65;98328.66;6168736;22;112959;-87
2023/12/10 15:04:30;;;;;;;9.43;2.50;;;11.90;92.10;;;12.22;52.78;98327.63;6143142;22;113874;-86
2023/12/10 15:07:04;;;;;;;5.37;2.10;;;11.90;92.00;;;12.25;52.46;98315.91;6124933;22;123762;-88
2023/12/10 15:10:14;;;;;;;8.57;2.03;;;11.90;92.00;;;12.25;52.27;98317.84;6255527;22;123711;-87
2023/12/10 15:12:41;;;;;;;4.83;2.00;;;12.00;92.00;;;12.25;52.41;98321.44;6205156;22;114246;-87
2023/12/10 15:15:20;;;;;;;4.37;2.03;;;12.00;92.10;;;12.24;52.40;98319.78;6231895;22;114996;-88
2023/12/10 15:17:52;;;;;;;9.20;2.63;;;11.90;92.00;;;12.24;52.38;98317.03;6206866;22;122408;-87
2023/12/10 15:20:31;;;;;;;8.00;2.20;;;9.20;91.70;;;12.23;52.14;98298.78;6234732;22;124021;-87
2023/12/10 15:23:09;;;;;;;6.50;2.50;;;12.00;92.00;;;12.22;52.20;98302.69;6187210;22;113303;-87
2023/12/10 15:26:03;;;;;;;7.93;1.97;;;11.90;92.10;;;12.14;52.74;98290.56;6084090;23;113988;-88
2023/12/10 15:29:34;;;;;;;8.70;2.53;;;11.90;91.90;;;12.11;52.61;98279.31;6067549;23;123810;-87
2023/12/10 15:32:30;;;;;;;6.70;2.00;;;10.00;91.10;;;12.09;52.65;98267.75;6061563;23;123375;-85
2023/12/10 15:35:06;;;;;;;11.53;3.03;;;11.90;92.10;;;12.08;53.02;98266.13;6120662;22;114380;-85
2023/12/10 15:37:40;;;;;;;11.40;2.17;;;11.90;92.10;;;12.08;52.72;98272.50;6106486;23;113810;-85
2023/12/10 15:40:33;;;;;;;4.80;2.03;;;11.80;92.00;;;12.09;52.71;98281.59;6106807;23;123927;-87
2023/12/10 15:43:03;;;;;;;9.70;2.30;;;11.80;92.00;;;12.07;52.85;98289.44;6111221;23;122794;-86
2023/12/10 15:45:42;;;;;;;6.73;2.27;;;11.90;92.10;;;12.05;52.68;98291.75;6108084;23;113460;-85
2023/12/10 15:48:23;;;;;;;8.00;2.87;;;11.80;92.20;;;12.00;52.98;98295.50;6032077;23;111710;-84
2023/12/10 15:50:59;;;;;;;10.00;2.40;;;11.70;92.10;;;11.96;52.92;98286.25;6039517;23;123208;-84
2023/12/10 15:53:27;;;;;;;6.10;2.33;;;11.70;92.10;;;11.94;53.10;98283.81;6059907;23;122530;-85
2023/12/10 15:55:54;;;;;;;7.83;2.10;;;11.70;92.20;;;11.93;53.04;98276.66;6083092;23;113331;-85
2023/12/10 15:58:35;;;;;;;8.00;2.50;;;11.70;92.30;;;11.96;53.26;98288.22;6068936;23;112914;-84
2023/12/10 16:01:03;;;;;;;12.50;3.10;;;11.70;92.20;;;11.91;52.73;98281.72;6075785;23;124498;-85
2023/12/10 16:03:32;;;;;;;11.90;2.87;;;11.60;92.10;;;11.88;53.22;98282.38;6100486;23;123122;-86
2023/12/10 16:06:09;;;;;;;5.53;2.07;;;11.60;92.50;;;11.84;52.95;98275.84;6076892;23;114070;-85
2023/12/10 16:08:42;;;;;;;10.50;2.73;;;11.60;92.20;;;11.82;53.50;98272.63;6086939;22;113911;-85
2023/12/10 16:11:17;;;;;;;8.80;3.60;;;11.60;92.20;;;11.81;52.73;98272.94;6120369;22;122335;-86
2023/12/10 16:13:46;;;;;;;11.47;2.73;;;11.50;92.10;;;11.79;53.07;98270.50;6146212;22;123258;-85
2023/12/10 16:16:17;;;;;;;9.33;2.83;;;11.50;92.20;;;11.80;53.03;98261.06;6142926;22;113936;-85
2023/12/10 16:18:54;;;;;;;5.80;2.00;;;11.50;92.10;;;11.79;52.85;98256.66;6083115;23;113401;-86
2023/12/10 16:21:33;;;;;;;13.47;2.93;;;11.60;92.30;;;11.73;53.07;98230.31;6081010;23;123649;-86
2023/12/10 16:24:01;;;;;;;12.00;3.30;;;11.40;92.10;;;11.71;53.30;98227.91;6168025;22;122745;-86
2023/12/10 16:26:52;;;;;;;9.00;2.50;;;11.50;92.40;;;11.71;52.90;98216.00;6162466;22;116055;-86
2023/12/10 16:29:19;;;;;;;12.13;2.90;;;11.50;92.20;;;11.71;53.26;98216.84;6160378;22;114637;-86
2023/12/10 16:31:48;;;;;;;6.63;2.53;;;11.50;92.20;;;11.71;53.03;98210.47;6197487;22;123578;-84
2023/12/10 16:34:24;;;;;;;13.30;3.10;;;11.40;92.40;;;11.67;53.19;98217.84;6197016;22;123400;-84
2023/12/10 16:36:56;;;;;;;7.47;2.60;;;11.30;92.30;;;11.62;52.65;98195.88;6181445;22;112785;-86
2023/12/10 16:40:00;;;;;;;14.43;3.00;;;11.30;92.00;;;11.57;52.89;98199.66;6112677;23;113007;-85
2023/12/10 16:42:43;;;;;;;13.00;3.10;;;11.30;92.10;;;11.52;52.80;98201.78;6052898;23;124666;-88
2023/12/10 16:46:07;;;;;;;6.00;1.80;;;11.20;91.90;;;11.41;53.12;98188.34;5974935;23;122088;-88
2023/12/10 16:49:35;;;;;;;8.50;2.50;;;11.10;91.90;;;11.37;53.23;98195.69;5955018;23;113336;-88
2023/12/10 16:52:26;;;;;;;13.30;2.80;;;11.20;92.00;;;11.32;53.06;98179.28;5994624;23;112687;-87
2023/12/10 17:06:17;;;;;;;10.13;2.53;;;11.00;91.80;;;11.17;52.76;98158.50;6174036;22;115579;-86
2023/12/10 17:10:11;;;;;;;8.20;2.27;;;10.90;91.70;;;11.17;52.45;98146.66;6177617;22;123392;-82
2023/12/10 17:13:44;;;;;;;8.70;2.27;;;10.90;91.50;;;11.17;52.28;98147.44;6003468;23;123858;-88
2023/12/10 17:17:28;;;;;;;12.60;2.80;;;10.90;91.50;;;11.18;52.35;98109.59;6164048;22;114252;-90
2023/12/10 17:20:43;;;;;;;8.90;2.40;;;11.10;91.30;;;11.20;51.68;98107.28;6171633;22;113342;-88
2023/12/10 17:32:48;;;;;;;9.00;2.90;;;11.00;91.00;;;11.32;51.00;98112.09;6238291;22;97792;-89
2023/12/10 17:35:47;;;;;;;29.93;3.30;;;11.00;90.90;;;11.35;51.32;98109.47;6206282;22;122679;-86
2023/12/10 17:39:16;;;;;;;7.50;2.10;;;11.10;91.00;;;11.39;50.75;98104.06;6019357;23;124068;-91
2023/12/10 17:59:25;;;;;;;7.20;2.60;;;11.10;90.00;;;11.48;50.18;98044.78;6215560;22;99146;-90
2023/12/10 18:05:56;;;;;;;9.57;2.13;;;11.20;90.00;;;11.49;50.28;98029.81;6210442;22;116265;-90
2023/12/10 18:08:53;;;;;;;8.60;2.63;;;11.20;90.00;;;11.54;49.65;98039.88;6133100;22;115579;-89
2023/12/10 18:11:24;;;;;;;8.63;2.60;;;11.30;89.90;;;11.57;49.51;98021.78;6168534;22;124898;-85
2023/12/10 18:13:53;;;;;;;10.10;2.43;;;11.30;90.10;;;11.59;49.29;98016.72;6272012;22;124477;-89
2023/12/10 18:16:45;;;;;;;7.70;2.40;;;11.30;90.20;;;11.61;49.36;98006.94;6272239;22;112506;-84
2023/12/10 18:22:55;;;;;;;2.97;1.47;;;11.30;88.70;;;11.63;49.01;97996.34;6241907;22;125101;-89
2023/12/10 18:25:45;;;;;;;4.70;1.80;;;11.40;88.90;;;11.66;48.51;97992.06;6214113;22;123140;-90
2023/12/10 18:35:35;;;;;;;7.13;2.20;;;11.00;87.80;;;11.69;48.53;97947.13;6241390;22;125182;-86
2023/12/10 18:38:59;;;;;;;8.00;2.33;;;11.40;88.50;;;11.72;48.33;97946.44;6215709;22;122475;-86
2023/12/10 18:42:14;;;;;;;4.60;1.90;;;11.50;87.90;;;11.75;48.06;97933.91;6239712;22;115207;-90
2023/12/10 18:44:52;;;;;;;8.67;2.70;;;11.40;87.40;;;11.77;47.82;97928.81;6119047;22;112830;-89
2023/12/10 18:48:31;;;;;;;7.67;2.43;;;11.50;88.20;;;11.80;47.54;97928.16;6117279;22;124977;-90
2023/12/10 18:55:20;;;;;;;7.60;2.10;;;11.40;86.70;;;11.81;47.35;97924.22;6114196;22;116567;-90
2023/12/10 19:01:29;;;;;;;19.30;2.70;;;13.30;87.50;;;11.82;46.75;97928.59;6148884;22;125217;-90
2023/12/10 19:04:05;;;;;;;5.83;2.20;;;11.50;85.90;;;11.87;46.65;97925.63;6151808;22;124115;-82
2023/12/10 19:06:43;;;;;;;6.70;2.23;;;11.60;86.30;;;11.89;46.58;97929.69;6156072;22;115900;-82
2023/12/10 19:09:10;;;;;;;7.63;2.97;;;10.20;84.00;;;11.88;46.47;97922.53;6222772;22;115909;-91
2023/12/10 19:11:42;;;;;;;9.20;1.90;;;11.60;85.20;;;11.90;46.55;97906.41;6245321;22;124153;-90
2023/12/10 19:14:17;;;;;;;6.87;2.10;;;11.60;85.10;;;11.91;46.46;97912.75;6273372;22;123838;-90
2023/12/10 19:17:02;;;;;;;4.97;2.07;;;11.60;85.30;;;11.93;46.31;97894.66;6242631;22;114154;-90
2023/12/10 19:19:29;;;;;;;6.23;2.10;;;11.60;85.00;;;11.94;46.00;97887.13;6271167;22;114396;-89
2023/12/10 19:25:42;;;;;;;9.97;2.27;;;11.70;84.40;;;11.96;45.77;97878.50;6273945;22;125925;-88
2023/12/10 19:28:09;;;;;;;11.80;2.53;;;11.90;84.70;;;11.97;45.89;97883.69;6270260;22;114520;-90
2023/12/10 19:30:55;;;;;;;4.43;2.20;;;11.70;84.60;;;12.01;45.74;97872.72;6241760;22;113110;-90
2023/12/10 19:41:13;;;;;;;7.50;2.13;;;11.70;82.70;;;12.02;44.30;97843.91;6273557;22;115251;-85
2023/12/10 19:44:58;;;;;;;4.83;1.70;;;11.90;81.80;;;11.99;44.09;97836.28;6159827;22;114845;-86
2023/12/10 19:47:58;;;;;;;6.83;2.20;;;11.90;80.60;;;12.01;43.29;97817.34;6107512;22;124281;-87
2023/12/10 19:51:21;;;;;;;4.50;1.80;;;11.80;79.90;;;12.02;43.46;97805.13;6151540;22;122394;-88
2023/12/10 20:01:14;;;;;;;8.60;2.70;;;11.80;78.50;;;12.07;43.16;97753.09;6079302;23;124746;-89
2023/12/10 20:04:16;;;;;;;4.83;1.83;;;11.90;79.40;;;12.10;42.87;97744.09;6005415;23;124103;-86
2023/12/10 20:07:12;;;;;;;5.53;1.90;;;11.90;79.00;;;12.14;42.77;97731.19;5977582;23;116129;-84
2023/12/10 20:10:08;;;;;;;4.10;1.80;;;11.90;78.50;;;12.16;42.38;97706.69;6028904;23;114762;-85
2023/12/10 20:13:30;;;;;;;4.27;1.20;;;10.70;76.70;;;12.15;42.78;97702.31;6030423;23;124916;-87
2023/12/10 20:21:19;;;;;;;4.60;1.50;;;11.70;75.90;;;12.15;42.29;97682.16;6043608;23;115419;-88
2023/12/10 20:24:29;;;;;;;4.00;1.87;;;11.90;77.40;;;12.14;41.80;97683.28;6113781;23;114679;-85
2023/12/10 20:27:37;;;;;;;3.10;1.60;;;11.90;76.40;;;12.15;41.61;97676.59;6118020;23;124159;-91
2023/12/10 20:30:54;;;;;;;3.10;1.50;;;11.90;76.20;;;12.14;41.34;97669.44;6116965;23;123809;-89
2023/12/10 20:33:55;;;;;;;4.20;1.57;;;11.80;75.80;;;12.13;41.23;97676.16;6092670;23;114326;-89
2023/12/10 20:36:31;;;;;;;3.33;1.63;;;11.90;75.80;;;12.12;41.41;97657.94;6164785;22;113870;-89
2023/12/10 20:50:28;;;;;;;2.80;1.50;;;12.40;75.60;;;12.06;40.95;97670.38;6220893;22;114524;-87
2023/12/10 20:58:17;;;;;;;5.43;1.77;;;11.80;74.60;;;12.07;41.13;97697.72;6059510;23;124129;-86
2023/12/10 21:01:32;;;;;;;3.43;1.17;;;12.00;75.10;;;12.09;41.14;97678.00;5971990;23;115015;-86
2023/12/10 21:04:15;;;;;;;4.17;1.83;;;11.90;74.70;;;12.10;40.85;97663.81;5978278;23;113559;-86
2023/12/10 21:07:01;;;;;;;2.60;1.30;;;12.00;75.50;;;12.15;40.55;97665.53;5998320;23;122895;-87
2023/12/10 21:10:06;;;;;;;2.63;1.30;;;11.90;74.20;;;12.17;40.57;97668.75;5927271;23;124055;-89
2023/12/10 21:12:58;;;;;;;5.20;1.27;;;11.90;73.80;;;12.19;40.47;97651.78;5933098;23;115282;-84
2023/12/10 21:15:26;;;;;;;2.73;1.20;;;11.90;73.60;;;12.19;40.67;97649.81;5995764;23;113982;-85
2023/12/10 21:17:53;;;;;;;3.00;1.30;;;12.00;73.80;;;12.22;40.58;97637.22;6001525;23;123017;-86
2023/12/10 21:20:20;;;;;;;3.00;1.63;;;11.90;73.90;;;12.24;40.60;97652.34;5998921;23;123489;-86
2023/12/10 21:23:35;;;;;;;4.10;1.33;;;11.90;74.00;;;12.24;41.06;97632.94;6000356;23;114885;-87
2023/12/10 21:26:11;;;;;;;7.30;1.10;;;10.90;73.10;;;12.24;41.03;97624.66;5997230;23;113302;-86
2023/12/10 21:29:20;;;;;;;2.03;1.23;;;11.90;74.60;;;12.24;41.34;97621.88;5977535;23;123845;-88
2023/12/10 21:32:39;;;;;;;4.67;1.27;;;12.00;74.70;;;12.21;41.15;97646.72;6007644;23;123304;-87
2023/12/10 21:36:22;;;;;;;2.17;1.70;;;12.00;74.90;;;12.22;41.61;97653.84;6148151;22;112997;-88
2023/12/10 21:39:28;;;;;;;1.33;0.90;;;12.00;76.00;;;12.21;42.14;97600.44;6139696;22;114723;-89
2023/12/10 21:43:41;;;;;;;1.60;0.90;;;12.00;75.80;;;12.21;42.03;97608.75;6086938;22;124931;-88
2023/12/10 21:55:31;;;;;;;3.37;1.20;;;12.00;76.70;;;12.28;43.21;97589.56;5985963;23;114424;-86
2023/12/10 21:59:12;;;;;;;1.83;1.17;;;12.10;77.90;;;12.26;44.00;97597.41;5889823;23;124079;-87
2023/12/10 22:07:01;;;;;;;1.10;0.90;;;12.20;80.00;;;12.24;46.23;97607.22;5877974;23;114840;-87
2023/12/10 22:11:03;;;;;;;2.90;0.90;;;12.10;82.10;;;12.20;48.24;97606.31;5891259;23;114872;-88
2023/12/10 22:18:41;;;;;;;2.50;1.03;;;11.00;87.00;;;12.01;51.13;97599.47;5810105;24;124871;-87
2023/12/10 22:22:24;;;;;;;1.07;0.83;;;11.80;89.10;;;11.97;51.59;97625.44;5809123;24;115999;-86
2023/12/10 22:29:22;;;;;;;2.27;1.40;;;11.90;90.40;;;11.86;52.47;97614.06;5782649;24;125221;-85
2023/12/10 22:33:17;;;;;;;3.17;0.97;;;10.20;90.10;;;11.80;53.08;97624.53;5783070;24;124528;-85
2023/12/10 22:37:11;;;;;;;2.30;1.00;;;11.60;90.90;;;11.77;53.55;97644.59;5783856;24;115153;-88
2023/12/10 22:40:39;;;;;;;2.40;1.23;;;11.60;91.50;;;11.75;53.99;97630.31;5757247;24;114988;-88
2023/12/10 22:51:15;;;;;;;2.37;1.10;;;11.60;92.00;;;11.70;55.57;97638.84;6176870;22;115349;-83
